Terminal Aerodrome Forecast
Issued by NWS

Home | Current Version | Previous Version | Text Only | Print | Product List | Glossary Off
Versions: 1 2 3 4 5 6 7 8 9 10 11 12 13 14 15

000
FTUS43 KMPX 271127
TAFRNH
TAF
KRNH 271127Z 2712/2812 VRB03KT P6SM BKN120
     FM271900 VRB03KT P6SM VCSH SCT035 OVC070
      TEMPO 2721/2724 3SM -TSRA BKN030CB
     FM280000 08004KT 6SM -SHRA BR SCT020 OVC035
     FM280400 07003KT 6SM BR OVC015
     FM280800 06003KT 4SM BR OVC007=

USA.gov is the U.S. government's official web portal to all federal, state and local government web resources and services.